createdAt,value
2019-03-29T00:01:22.911Z,23.13
2019-03-29T00:03:53.671Z,22.43
2019-03-29T00:06:24.466Z,23.50
2019-03-29T00:08:55.490Z,22.57
2019-03-29T00:11:26.188Z,23.10
2019-03-29T00:13:56.869Z,25.17
2019-03-29T00:16:27.905Z,24.73
2019-03-29T00:18:58.737Z,22.87
2019-03-29T00:21:29.545Z,24.50
2019-03-29T00:24:06.545Z,25.10
2019-03-29T00:26:32.908Z,22.73
2019-03-29T00:29:04.061Z,24.57
2019-03-29T00:31:34.777Z,23.03
2019-03-29T00:34:05.528Z,23.60
2019-03-29T00:36:36.249Z,25.27
2019-03-29T00:39:08.037Z,23.60
2019-03-29T00:41:38.733Z,24.13
2019-03-29T00:44:09.506Z,23.37
2019-03-29T00:46:40.604Z,23.53
2019-03-29T00:49:11.424Z,22.00
2019-03-29T00:51:42.073Z,23.20
2019-03-29T00:54:12.843Z,22.57
2019-03-29T00:56:43.608Z,20.77
2019-03-29T00:59:14.964Z,22.70
2019-03-29T01:01:45.947Z,21.77
2019-03-29T01:04:16.739Z,23.63
2019-03-29T01:06:47.456Z,23.57
2019-03-29T01:09:18.322Z,21.30
2019-03-29T01:11:49.047Z,21.67
2019-03-29T01:14:20.232Z,21.87
2019-03-29T01:16:51.057Z,22.00
2019-03-29T01:19:21.873Z,21.23
2019-03-29T01:21:52.901Z,20.07
2019-03-29T01:24:23.735Z,21.37
2019-03-29T01:26:54.553Z,21.73
2019-03-29T01:29:25.388Z,21.40
2019-03-29T01:31:56.465Z,21.43
2019-03-29T01:34:27.159Z,22.47
2019-03-29T01:36:57.879Z,21.20
2019-03-29T01:39:28.645Z,21.83
2019-03-29T01:41:59.430Z,22.10
2019-03-29T01:44:30.645Z,21.53
2019-03-29T01:47:01.961Z,22.80
2019-03-29T01:49:32.788Z,21.37
2019-03-29T01:52:03.910Z,21.63
2019-03-29T01:54:34.661Z,21.30
2019-03-29T01:57:05.335Z,20.90
2019-03-29T01:59:36.120Z,22.57
2019-03-29T02:02:07.885Z,21.50
2019-03-29T02:04:38.639Z,22.33
2019-03-29T02:07:09.369Z,20.63
2019-03-29T02:09:40.141Z,19.70
2019-03-29T02:12:11.144Z,19.97
2019-03-29T02:14:43.465Z,21.80
2019-03-29T02:17:14.394Z,19.23
2019-03-29T02:19:45.496Z,19.87
2019-03-29T02:22:16.222Z,20.00
2019-03-29T02:24:47.041Z,19.70
2019-03-29T02:27:18.027Z,19.77
2019-03-29T02:29:48.826Z,21.10
2019-03-29T02:32:19.913Z,22.67
2019-03-29T02:34:51.769Z,20.47
2019-03-29T02:37:22.424Z,20.70
2019-03-29T02:39:54.673Z,20.47
2019-03-29T02:42:25.963Z,20.43
2019-03-29T02:44:57.124Z,18.43
2019-03-29T02:47:28.135Z,19.30
2019-03-29T02:49:59.249Z,19.37
2019-03-29T02:52:30.035Z,19.10
2019-03-29T02:55:01.122Z,20.07
2019-03-29T02:57:31.972Z,18.77
2019-03-29T03:00:02.717Z,20.47
2019-03-29T03:02:33.817Z,19.93
2019-03-29T03:05:05.009Z,19.70
2019-03-29T03:07:35.745Z,19.67
2019-03-29T03:10:08.486Z,19.07
2019-03-29T03:12:39.685Z,17.27
2019-03-29T03:15:10.801Z,17.63
2019-03-29T03:17:41.922Z,17.03
2019-03-29T03:20:15.690Z,14.83
2019-03-29T03:22:46.981Z,15.00
2019-03-29T03:25:17.827Z,15.67
2019-03-29T03:27:48.555Z,17.13
2019-03-29T03:30:19.535Z,17.30
2019-03-29T03:32:50.510Z,17.87
2019-03-29T03:35:21.791Z,16.67
2019-03-29T03:37:52.548Z,17.07
2019-03-29T03:40:23.354Z,15.57
2019-03-29T03:42:54.148Z,16.80
2019-03-29T03:45:24.910Z,15.90
2019-03-29T03:47:56.331Z,17.27
2019-03-29T03:50:43.692Z,17.13
2019-03-29T03:53:14.517Z,16.17
2019-03-29T03:55:45.443Z,16.57
2019-03-29T03:58:16.901Z,17.60
2019-03-29T04:00:55.273Z,15.07
2019-03-29T04:03:26.739Z,16.80
2019-03-29T04:05:58.182Z,16.50
2019-03-29T04:08:29.249Z,16.57
2019-03-29T04:11:00.045Z,16.57
2019-03-29T04:13:31.134Z,18.03
2019-03-29T04:16:02.219Z,16.23
2019-03-29T04:18:33.272Z,16.60
2019-03-29T04:21:03.982Z,16.27
2019-03-29T04:23:35.098Z,16.13
2019-03-29T04:26:06.137Z,15.10
2019-03-29T04:28:36.873Z,15.80
2019-03-29T04:31:07.957Z,14.37
2019-03-29T04:33:39.059Z,15.13
2019-03-29T04:36:09.894Z,14.13
2019-03-29T04:38:41.022Z,13.53
2019-03-29T04:41:12.204Z,14.07
2019-03-29T04:43:43.338Z,14.43
2019-03-29T04:46:14.496Z,15.13
2019-03-29T04:48:48.138Z,14.63
2019-03-29T04:51:18.908Z,14.23
2019-03-29T04:53:49.689Z,15.20
2019-03-29T04:56:20.443Z,14.47
2019-03-29T04:58:51.150Z,15.03
2019-03-29T05:01:21.912Z,15.67
2019-03-29T05:03:52.701Z,15.70
2019-03-29T05:06:24.177Z,17.30
2019-03-29T05:08:54.969Z,15.70
2019-03-29T05:11:25.806Z,14.53
2019-03-29T05:13:56.543Z,16.97
2019-03-29T05:16:27.612Z,16.00
2019-03-29T05:18:58.719Z,14.97
2019-03-29T05:21:29.527Z,16.27
2019-03-29T05:24:00.675Z,14.57
2019-03-29T05:26:31.788Z,15.20
2019-03-29T05:29:02.504Z,14.97
2019-03-29T05:31:33.577Z,14.67
2019-03-29T05:34:04.664Z,15.17
2019-03-29T05:36:35.452Z,14.97
2019-03-29T05:39:07.641Z,15.30
2019-03-29T05:41:38.396Z,15.67
2019-03-29T05:44:09.135Z,15.37
2019-03-29T05:46:39.883Z,15.90
2019-03-29T05:49:10.960Z,16.27
2019-03-29T05:51:42.002Z,16.23
2019-03-29T05:54:12.732Z,17.10
2019-03-29T05:56:43.895Z,15.43
2019-03-29T05:59:14.609Z,15.17
2019-03-29T06:01:45.380Z,16.33
2019-03-29T06:04:16.435Z,14.40
2019-03-29T06:06:47.553Z,16.10
2019-03-29T06:09:18.337Z,15.63
2019-03-29T06:11:49.413Z,15.53
2019-03-29T06:14:20.162Z,15.73
2019-03-29T06:16:50.922Z,16.23
2019-03-29T06:19:22.829Z,16.33
2019-03-29T06:21:53.611Z,14.73
2019-03-29T06:24:24.428Z,14.80
2019-03-29T06:26:55.250Z,15.47
2019-03-29T06:29:26.067Z,15.07
2019-03-29T06:31:56.844Z,15.07
2019-03-29T06:34:27.588Z,15.93
2019-03-29T06:36:59.804Z,16.43
2019-03-29T06:39:31.442Z,16.37
2019-03-29T06:42:02.199Z,16.63
2019-03-29T06:44:33.446Z,17.97
2019-03-29T06:47:04.527Z,19.20
2019-03-29T06:49:35.264Z,19.50
2019-03-29T06:52:07.401Z,20.30
2019-03-29T06:54:39.210Z,22.30
2019-03-29T06:57:10.369Z,23.13
2019-03-29T06:59:41.160Z,25.93
2019-03-29T07:02:11.904Z,28.73
2019-03-29T07:04:42.632Z,30.43
2019-03-29T07:07:13.376Z,32.43
2019-03-29T07:09:44.106Z,33.73
2019-03-29T07:12:15.211Z,33.93
2019-03-29T07:14:46.020Z,34.67
2019-03-29T07:17:18.264Z,36.27
2019-03-29T07:19:48.987Z,35.60
2019-03-29T07:22:19.735Z,36.77
2019-03-29T07:24:50.452Z,34.87
2019-03-29T07:27:21.191Z,39.47
2019-03-29T07:29:51.962Z,37.63
2019-03-29T07:32:22.754Z,39.20
2019-03-29T07:34:53.460Z,39.47
2019-03-29T07:37:24.218Z,38.77
2019-03-29T07:39:55.589Z,41.10
2019-03-29T07:42:26.730Z,40.77
2019-03-29T07:44:57.844Z,41.73
2019-03-29T07:47:28.682Z,40.07
2019-03-29T07:49:59.433Z,43.03
2019-03-29T07:52:30.180Z,40.90
2019-03-29T07:55:00.922Z,43.97
2019-03-29T07:57:31.732Z,40.50
2019-03-29T08:00:02.614Z,43.20
2019-03-29T08:02:35.090Z,39.90
2019-03-29T08:05:07.110Z,41.87
2019-03-29T08:07:38.261Z,41.10
2019-03-29T08:10:23.625Z,44.37
2019-03-29T08:12:42.196Z,41.00
2019-03-29T08:15:12.937Z,40.53
2019-03-29T08:17:44.205Z,40.50
2019-03-29T08:20:38.100Z,40.17
2019-03-29T08:22:47.972Z,37.90
2019-03-29T08:25:18.741Z,39.10
2019-03-29T08:27:49.883Z,37.60
2019-03-29T08:30:20.612Z,41.30
2019-03-29T08:32:51.477Z,39.37
2019-03-29T08:35:22.674Z,38.60
2019-03-29T08:37:53.434Z,36.63
2019-03-29T08:40:24.240Z,37.23
2019-03-29T08:42:55.145Z,36.83
2019-03-29T08:45:26.195Z,36.30
2019-03-29T08:47:57.036Z,36.73
2019-03-29T08:50:28.093Z,36.40
2019-03-29T08:52:59.041Z,36.47
2019-03-29T08:55:29.915Z,34.43
2019-03-29T08:58:00.653Z,34.60
2019-03-29T09:00:32.676Z,35.53
2019-03-29T09:03:04.830Z,35.67
2019-03-29T09:05:39.022Z,35.43
2019-03-29T09:08:08.592Z,35.07
2019-03-29T09:10:39.394Z,34.97
2019-03-29T09:13:10.496Z,34.43
2019-03-29T09:15:41.597Z,32.63
2019-03-29T09:18:12.851Z,31.87
2019-03-29T09:20:43.964Z,31.10
2019-03-29T09:23:15.096Z,30.60
2019-03-29T09:25:46.108Z,29.83
2019-03-29T09:28:17.242Z,31.23
2019-03-29T09:30:47.983Z,29.93
2019-03-29T09:33:18.749Z,24.40
2019-03-29T09:35:49.459Z,25.70
2019-03-29T09:38:20.213Z,25.23
2019-03-29T09:40:58.178Z,27.13
2019-03-29T09:43:26.407Z,27.20
2019-03-29T09:45:55.992Z,29.43
2019-03-29T09:48:27.507Z,27.13
2019-03-29T09:50:58.356Z,26.63
2019-03-29T09:53:29.192Z,24.27
2019-03-29T09:56:00.665Z,23.57
2019-03-29T09:58:31.507Z,24.83
2019-03-29T10:01:02.251Z,24.33
2019-03-29T10:03:33.155Z,19.90
2019-03-29T10:06:03.958Z,19.33
2019-03-29T10:08:34.814Z,20.90
2019-03-29T10:11:06.819Z,20.17
2019-03-29T10:13:37.982Z,19.77
2019-03-29T10:16:08.725Z,20.43
2019-03-29T10:18:39.780Z,19.07
2019-03-29T10:21:11.715Z,19.43
2019-03-29T10:23:42.506Z,19.67
2019-03-29T10:26:13.329Z,19.77
2019-03-29T10:28:44.543Z,18.87
2019-03-29T10:31:15.319Z,18.33
2019-03-29T10:33:49.026Z,18.73
2019-03-29T10:36:19.035Z,19.27
2019-03-29T10:38:50.755Z,19.30
2019-03-29T10:41:22.806Z,19.03
2019-03-29T10:43:53.743Z,16.67
2019-03-29T10:46:24.569Z,17.43
2019-03-29T10:48:55.734Z,18.00
2019-03-29T10:51:26.483Z,19.13
2019-03-29T10:53:57.241Z,18.60
2019-03-29T10:56:34.322Z,17.00
2019-03-29T10:59:00.881Z,17.20
2019-03-29T11:01:34.616Z,15.60
2019-03-29T11:04:05.759Z,18.90
2019-03-29T11:06:36.513Z,18.67
2019-03-29T11:09:08.605Z,15.25
2019-03-29T11:11:39.358Z,15.10
2019-03-29T11:14:10.131Z,15.43
2019-03-29T11:16:40.874Z,14.95
2019-03-29T11:19:11.601Z,14.77
2019-03-29T11:21:42.366Z,14.53
2019-03-29T11:24:13.107Z,14.87
2019-03-29T11:26:43.804Z,14.73
2019-03-29T11:29:15.234Z,15.43
2019-03-29T11:31:45.989Z,17.52
2019-03-29T11:34:16.929Z,14.93
2019-03-29T11:36:48.056Z,16.32
2019-03-29T11:39:19.006Z,15.00
2019-03-29T11:41:50.152Z,15.23
2019-03-29T11:44:20.953Z,15.00
2019-03-29T11:46:51.743Z,15.25
2019-03-29T11:49:22.579Z,14.75
2019-03-29T11:51:53.405Z,14.87
2019-03-29T11:54:24.443Z,14.58
2019-03-29T11:56:55.372Z,15.32
2019-03-29T11:59:26.898Z,14.30
2019-03-29T12:01:57.927Z,14.07
2019-03-29T12:04:28.762Z,13.72
2019-03-29T12:07:03.440Z,13.43
2019-03-29T12:09:33.457Z,14.80
2019-03-29T12:12:04.425Z,15.72
2019-03-29T12:14:35.223Z,15.20
2019-03-29T12:17:05.947Z,12.47
2019-03-29T12:19:36.708Z,12.53
2019-03-29T12:22:07.516Z,14.45
2019-03-29T12:24:39.335Z,11.97
2019-03-29T12:27:10.450Z,11.33
2019-03-29T12:29:41.270Z,11.80
2019-03-29T12:32:12.043Z,11.07
2019-03-29T12:34:43.883Z,12.03
2019-03-29T12:37:14.631Z,11.40
2019-03-29T12:39:45.464Z,11.00
2019-03-29T12:42:18.710Z,10.45
2019-03-29T12:44:49.489Z,10.08
2019-03-29T12:47:20.251Z,12.28
2019-03-29T12:49:51.331Z,11.97
2019-03-29T12:52:22.177Z,10.43
2019-03-29T12:54:53.012Z,12.40
2019-03-29T12:57:24.178Z,12.85
2019-03-29T12:59:55.403Z,12.43
2019-03-29T13:02:26.137Z,13.78
2019-03-29T13:04:56.907Z,12.10
2019-03-29T13:07:28.527Z,11.48
2019-03-29T13:09:59.285Z,12.43
2019-03-29T13:12:31.411Z,10.90
2019-03-29T13:15:02.218Z,11.63
2019-03-29T13:17:34.982Z,11.70
2019-03-29T13:20:06.362Z,10.55
2019-03-29T13:22:37.457Z,9.88
2019-03-29T13:25:08.547Z,10.93
2019-03-29T13:27:39.311Z,11.48
2019-03-29T13:30:11.017Z,11.57
2019-03-29T13:32:42.336Z,10.83
2019-03-29T13:35:13.784Z,11.18
2019-03-29T13:37:44.941Z,10.78
2019-03-29T13:40:16.208Z,10.75
2019-03-29T13:42:47.411Z,12.23
2019-03-29T13:45:18.163Z,10.53
2019-03-29T13:47:49.025Z,11.70
2019-03-29T13:50:19.891Z,11.17
2019-03-29T13:52:50.624Z,10.55
2019-03-29T13:55:21.486Z,11.33
2019-03-29T13:57:52.236Z,11.00
2019-03-29T14:00:22.983Z,11.80
2019-03-29T14:02:53.747Z,11.97
2019-03-29T14:05:24.899Z,11.80
2019-03-29T14:07:56.545Z,10.63
2019-03-29T14:10:27.400Z,10.65
2019-03-29T14:12:58.253Z,11.38
2019-03-29T14:15:29.073Z,10.45
2019-03-29T14:18:02.131Z,11.13
2019-03-29T14:20:34.126Z,11.13
2019-03-29T14:23:05.933Z,10.53
2019-03-29T14:25:37.036Z,10.97
2019-03-29T14:28:08.093Z,10.50
2019-03-29T14:30:38.933Z,10.50
2019-03-29T14:33:09.773Z,10.53
2019-03-29T14:35:40.586Z,10.83
2019-03-29T14:38:11.336Z,10.60
2019-03-29T14:40:42.433Z,11.55
2019-03-29T14:43:13.514Z,12.90
2019-03-29T14:45:44.820Z,11.50
2019-03-29T14:48:15.953Z,11.23
2019-03-29T14:50:46.724Z,10.60
2019-03-29T14:53:18.134Z,11.73
2019-03-29T14:55:48.964Z,10.30
2019-03-29T14:58:20.810Z,10.80
2019-03-29T15:00:51.562Z,9.67
2019-03-29T15:03:22.682Z,9.43
2019-03-29T15:05:54.002Z,10.40
2019-03-29T15:08:25.045Z,10.70
2019-03-29T15:10:56.088Z,9.47
2019-03-29T15:13:26.843Z,10.27
2019-03-29T15:15:57.759Z,10.87
2019-03-29T15:18:28.540Z,9.63
2019-03-29T15:20:59.304Z,10.43
2019-03-29T15:23:30.097Z,10.30
2019-03-29T15:26:01.302Z,10.28
2019-03-29T15:28:32.090Z,11.07
2019-03-29T15:31:02.918Z,9.47
2019-03-29T15:33:33.652Z,9.37
2019-03-29T15:36:04.830Z,9.87
2019-03-29T15:38:36.329Z,9.50
2019-03-29T15:41:07.163Z,9.60
2019-03-29T15:43:38.938Z,8.80
2019-03-29T15:46:09.668Z,11.05
2019-03-29T15:48:40.836Z,10.15
2019-03-29T15:51:13.082Z,9.77
2019-03-29T15:53:44.128Z,9.57
2019-03-29T15:56:14.942Z,9.03
2019-03-29T15:58:45.666Z,10.43
2019-03-29T16:01:16.428Z,9.20
2019-03-29T16:03:47.173Z,9.40
2019-03-29T16:06:17.925Z,9.53
2019-03-29T16:08:48.650Z,10.47
2019-03-29T16:11:22.547Z,10.30
2019-03-29T16:13:54.380Z,10.77
2019-03-29T16:16:25.145Z,11.20
2019-03-29T16:18:55.904Z,9.77
2019-03-29T16:21:26.683Z,10.07
2019-03-29T16:23:59.606Z,9.73
2019-03-29T16:26:30.401Z,10.47
2019-03-29T16:29:01.190Z,14.33
2019-03-29T16:31:32.401Z,15.83
2019-03-29T16:34:03.539Z,9.57
2019-03-29T16:36:34.398Z,9.40
2019-03-29T16:39:07.382Z,9.87
2019-03-29T16:41:38.528Z,9.80
2019-03-29T16:44:09.374Z,9.20
2019-03-29T16:46:40.050Z,9.80
2019-03-29T16:49:10.855Z,10.20
2019-03-29T16:51:41.591Z,9.20
2019-03-29T16:54:12.373Z,10.07
2019-03-29T16:56:43.139Z,10.10
2019-03-29T16:59:14.647Z,9.43
2019-03-29T17:01:45.397Z,9.83
2019-03-29T17:04:16.242Z,9.33
2019-03-29T17:06:47.546Z,9.97
2019-03-29T17:09:18.340Z,9.73
2019-03-29T17:11:49.131Z,10.27
2019-03-29T17:14:20.303Z,9.30
2019-03-29T17:16:52.930Z,8.77
2019-03-29T17:19:23.536Z,8.93
2019-03-29T17:21:54.383Z,9.00
2019-03-29T17:24:25.180Z,8.23
2019-03-29T17:26:56.105Z,18.47
2019-03-29T17:29:27.472Z,25.13
2019-03-29T17:31:58.248Z,26.83
2019-03-29T17:34:29.508Z,29.33
2019-03-29T17:37:00.631Z,29.70
2019-03-29T17:39:31.544Z,33.10
2019-03-29T17:42:02.459Z,32.33
2019-03-29T17:44:33.354Z,33.13
2019-03-29T17:47:04.156Z,32.83
2019-03-29T17:49:34.874Z,32.70
2019-03-29T17:52:05.645Z,34.33
2019-03-29T17:54:36.384Z,37.53
2019-03-29T17:57:07.249Z,35.97
2019-03-29T17:59:38.327Z,37.97
2019-03-29T18:02:09.954Z,41.57
2019-03-29T18:04:41.885Z,42.07
2019-03-29T18:07:12.713Z,43.87
2019-03-29T18:09:43.499Z,41.63
2019-03-29T18:12:14.296Z,42.00
2019-03-29T18:14:45.091Z,43.63
2019-03-29T18:17:16.176Z,43.27
2019-03-29T18:19:46.903Z,42.93
2019-03-29T18:22:18.299Z,45.77
2019-03-29T18:24:49.089Z,45.47
2019-03-29T18:27:19.888Z,49.87
2019-03-29T18:29:53.040Z,52.57
2019-03-29T18:32:23.870Z,48.77
2019-03-29T18:34:55.013Z,53.10
2019-03-29T18:37:26.525Z,45.80
2019-03-29T18:39:58.072Z,40.53
2019-03-29T18:42:28.835Z,40.43
2019-03-29T18:44:59.510Z,39.63
2019-03-29T18:47:30.186Z,38.27
2019-03-29T18:50:00.887Z,40.70
2019-03-29T18:52:31.759Z,38.57
2019-03-29T18:55:02.440Z,38.77
2019-03-29T18:57:33.223Z,41.60
2019-03-29T19:00:05.449Z,40.40
2019-03-29T19:02:37.983Z,42.20
2019-03-29T19:05:14.197Z,40.20
2019-03-29T19:07:44.880Z,41.47
2019-03-29T19:10:15.573Z,40.17
2019-03-29T19:12:46.293Z,39.93
2019-03-29T19:15:17.103Z,40.17
2019-03-29T19:17:48.072Z,40.10
2019-03-29T19:20:27.382Z,42.87
2019-03-29T19:22:51.202Z,38.43
2019-03-29T19:25:21.994Z,40.63
2019-03-29T19:27:53.034Z,41.10
2019-03-29T19:30:24.735Z,45.60
2019-03-29T19:32:55.526Z,42.03
2019-03-29T19:35:27.601Z,43.93
2019-03-29T19:37:58.331Z,41.53
2019-03-29T19:40:28.960Z,42.77
2019-03-29T19:43:00.058Z,42.43
2019-03-29T19:45:34.293Z,44.67
2019-03-29T19:48:04.264Z,42.80
2019-03-29T19:50:34.880Z,43.93
2019-03-29T19:53:06.796Z,45.03
2019-03-29T19:55:37.483Z,45.00
2019-03-29T19:58:08.342Z,47.63
2019-03-29T20:00:45.638Z,47.17
2019-03-29T20:03:16.625Z,46.67
2019-03-29T20:05:48.352Z,45.33
2019-03-29T20:08:19.160Z,44.50
2019-03-29T20:10:50.199Z,43.57
2019-03-29T20:13:21.264Z,43.23
2019-03-29T20:15:51.888Z,45.57
2019-03-29T20:18:22.654Z,61.57
2019-03-29T20:20:53.650Z,49.83
2019-03-29T20:23:24.369Z,44.83
2019-03-29T20:25:55.370Z,42.17
2019-03-29T20:28:26.155Z,45.20
2019-03-29T20:30:57.149Z,48.70
2019-03-29T20:33:28.089Z,54.33
2019-03-29T20:35:59.032Z,55.43
2019-03-29T20:38:29.777Z,53.53
2019-03-29T20:41:00.994Z,50.37
2019-03-29T20:43:31.988Z,50.40
2019-03-29T20:46:03.997Z,51.43
2019-03-29T20:48:34.713Z,47.53
2019-03-29T20:51:06.112Z,50.60
2019-03-29T20:53:36.961Z,48.40
2019-03-29T20:56:07.676Z,49.43
2019-03-29T20:58:39.213Z,47.37
2019-03-29T21:01:09.957Z,47.80
2019-03-29T21:03:40.772Z,46.27
2019-03-29T21:06:11.848Z,46.63
2019-03-29T21:08:43.751Z,47.03
2019-03-29T21:11:14.499Z,42.13
2019-03-29T21:13:45.435Z,45.17
2019-03-29T21:16:16.299Z,45.20
2019-03-29T21:18:47.436Z,45.47
2019-03-29T21:21:18.136Z,42.93
2019-03-29T21:23:48.858Z,45.10
2019-03-29T21:26:19.485Z,44.53
2019-03-29T21:28:52.725Z,43.53
2019-03-29T21:31:22.752Z,42.93
2019-03-29T21:33:54.054Z,42.77
2019-03-29T21:36:26.211Z,45.30
2019-03-29T21:38:56.901Z,42.50
2019-03-29T21:41:27.682Z,45.43
2019-03-29T21:43:58.354Z,43.40
2019-03-29T21:46:29.107Z,41.67
2019-03-29T21:48:59.850Z,43.37
2019-03-29T21:51:30.535Z,41.93
2019-03-29T21:54:01.282Z,43.80
2019-03-29T21:56:31.986Z,39.97
2019-03-29T21:59:02.972Z,41.50
2019-03-29T22:01:33.738Z,39.67
2019-03-29T22:04:04.897Z,39.67
2019-03-29T22:06:35.938Z,41.33
2019-03-29T22:09:08.313Z,41.40
2019-03-29T22:11:39.160Z,41.53
2019-03-29T22:14:09.909Z,41.33
2019-03-29T22:16:40.863Z,40.60
2019-03-29T22:19:11.505Z,40.90
2019-03-29T22:21:42.205Z,42.53
2019-03-29T22:24:12.927Z,40.63
2019-03-29T22:26:44.113Z,42.37
2019-03-29T22:29:15.027Z,42.50
2019-03-29T22:31:45.645Z,44.77
2019-03-29T22:34:16.763Z,41.70
2019-03-29T22:36:48.818Z,42.83
2019-03-29T22:39:19.522Z,44.27
2019-03-29T22:41:50.250Z,41.53
2019-03-29T22:44:20.937Z,42.90
2019-03-29T22:46:51.644Z,43.13
2019-03-29T22:49:22.354Z,43.00
2019-03-29T22:51:53.256Z,42.30
2019-03-29T22:54:23.991Z,40.33
2019-03-29T22:56:54.679Z,41.93
2019-03-29T22:59:25.367Z,39.80
2019-03-29T23:01:56.260Z,39.63
2019-03-29T23:04:27.317Z,39.40
2019-03-29T23:06:58.248Z,37.93
2019-03-29T23:09:29.223Z,41.07
2019-03-29T23:11:59.511Z,41.53
2019-03-29T23:14:30.197Z,44.37
2019-03-29T23:17:00.882Z,40.30
2019-03-29T23:19:31.600Z,41.23
2019-03-29T23:22:02.298Z,47.63
2019-03-29T23:24:33.307Z,45.70
2019-03-29T23:27:04.113Z,43.67
2019-03-29T23:29:35.037Z,43.37
2019-03-29T23:32:07.156Z,41.53
2019-03-29T23:34:37.890Z,41.80
2019-03-29T23:37:08.569Z,41.00
2019-03-29T23:39:39.680Z,38.17
2019-03-29T23:42:10.358Z,44.90
2019-03-29T23:44:41.039Z,53.80
2019-03-29T23:47:11.716Z,71.20
2019-03-29T23:49:44.238Z,63.00
2019-03-29T23:52:14.950Z,52.33
2019-03-29T23:54:45.674Z,50.10
2019-03-29T23:57:16.264Z,45.93
2019-03-29T23:59:47.352Z,41.90
